createdAt,value
2022-10-02T00:02:18.270Z,4.43
2022-10-02T00:04:52.841Z,3.73
2022-10-02T00:07:26.136Z,3.27
2022-10-02T00:09:58.767Z,4.93
2022-10-02T00:12:31.335Z,3.23
2022-10-02T00:15:06.984Z,3.50
2022-10-02T00:17:40.455Z,4.60
2022-10-02T00:20:14.319Z,4.30
2022-10-02T00:22:51.905Z,4.10
2022-10-02T00:25:26.906Z,4.00
2022-10-02T00:28:15.697Z,3.93
2022-10-02T00:30:57.315Z,3.93
2022-10-02T00:33:34.573Z,4.70
2022-10-02T00:36:11.991Z,4.30
2022-10-02T00:38:49.201Z,3.90
2022-10-02T00:41:50.742Z,3.33
2022-10-02T00:44:39.582Z,3.77
2022-10-02T00:47:15.901Z,3.53
2022-10-02T00:49:59.716Z,3.37
2022-10-02T00:52:43.051Z,3.60
2022-10-02T00:55:39.651Z,5.07
2022-10-02T00:58:27.624Z,4.07
2022-10-02T01:01:03.963Z,3.63
2022-10-02T01:03:38.117Z,4.00
2022-10-02T01:06:06.914Z,4.80
2022-10-02T01:08:35.758Z,3.60
2022-10-02T01:11:04.257Z,3.60
2022-10-02T01:13:35.254Z,3.30
2022-10-02T01:16:05.846Z,4.10
2022-10-02T01:18:34.182Z,4.13
2022-10-02T01:21:07.432Z,3.50
2022-10-02T01:23:42.969Z,3.50
2022-10-02T01:26:12.789Z,3.10
2022-10-02T01:28:41.174Z,3.30
2022-10-02T01:31:14.639Z,3.40
2022-10-02T01:33:45.659Z,3.27
2022-10-02T01:36:16.123Z,4.30
2022-10-02T01:38:45.484Z,4.00
2022-10-02T01:41:15.131Z,4.03
2022-10-02T01:43:47.983Z,3.73
2022-10-02T01:46:29.001Z,4.77
2022-10-02T01:49:07.420Z,3.47
2022-10-02T01:51:54.366Z,3.37
2022-10-02T01:54:34.732Z,3.63
2022-10-02T01:57:14.070Z,4.33
2022-10-02T01:59:51.311Z,3.90
2022-10-02T02:02:26.571Z,3.57
2022-10-02T02:04:59.862Z,3.43
2022-10-02T02:07:35.604Z,3.50
2022-10-02T02:10:13.878Z,3.93
2022-10-02T02:12:46.705Z,2.80
2022-10-02T02:15:21.371Z,3.63
2022-10-02T02:17:55.729Z,3.80
2022-10-02T02:20:31.600Z,3.23
2022-10-02T02:23:06.763Z,3.40
2022-10-02T02:25:39.937Z,3.37
2022-10-02T02:28:12.946Z,3.87
2022-10-02T02:30:44.852Z,3.10
2022-10-02T02:33:20.974Z,3.03
2022-10-02T02:35:52.878Z,3.13
2022-10-02T02:38:27.700Z,3.90
2022-10-02T02:41:00.348Z,3.47
2022-10-02T02:43:33.579Z,3.43
2022-10-02T02:46:07.226Z,3.27
2022-10-02T02:48:41.069Z,3.37
2022-10-02T02:51:12.819Z,3.43
2022-10-02T02:53:46.923Z,4.00
2022-10-02T02:56:18.963Z,2.80
2022-10-02T02:58:52.661Z,3.50
2022-10-02T03:01:21.250Z,2.60
2022-10-02T03:03:49.517Z,2.87
2022-10-02T03:06:31.661Z,3.23
2022-10-02T03:09:01.024Z,3.33
2022-10-02T03:11:43.089Z,2.57
2022-10-02T03:14:38.367Z,2.83
2022-10-02T03:17:20.778Z,3.13
2022-10-02T03:19:53.361Z,2.80
2022-10-02T03:22:29.235Z,2.70
2022-10-02T03:25:03.854Z,2.77
2022-10-02T03:27:37.865Z,3.07
2022-10-02T03:30:10.150Z,3.10
2022-10-02T03:32:40.617Z,2.80
2022-10-02T03:35:13.225Z,2.43
2022-10-02T03:37:45.700Z,2.53
2022-10-02T03:40:13.935Z,2.97
2022-10-02T03:42:42.090Z,2.73
2022-10-02T03:45:23.087Z,2.73
2022-10-02T03:48:00.134Z,2.70
2022-10-02T03:50:30.749Z,2.33
2022-10-02T03:53:01.077Z,2.80
2022-10-02T03:55:33.879Z,2.50
2022-10-02T03:58:10.498Z,2.40
2022-10-02T04:00:44.407Z,2.57
2022-10-02T04:03:16.976Z,2.60
2022-10-02T04:05:51.196Z,2.40
2022-10-02T04:08:20.587Z,2.67
2022-10-02T04:10:53.013Z,2.60
2022-10-02T04:13:26.093Z,2.20
2022-10-02T04:16:03.587Z,2.30
2022-10-02T04:18:36.375Z,2.20
2022-10-02T04:21:10.913Z,2.47
2022-10-02T04:23:44.892Z,2.73
2022-10-02T04:26:18.932Z,2.50
2022-10-02T04:28:52.383Z,2.50
2022-10-02T04:31:22.032Z,2.20
2022-10-02T04:33:50.249Z,2.80
2022-10-02T04:36:34.948Z,2.33
2022-10-02T04:39:31.244Z,3.00
2022-10-02T04:42:15.744Z,3.20
2022-10-02T04:44:58.986Z,2.13
2022-10-02T04:47:49.826Z,2.53
2022-10-02T04:50:30.635Z,2.53
2022-10-02T04:53:24.399Z,2.17
2022-10-02T04:56:12.660Z,2.60
2022-10-02T04:59:05.018Z,2.53
2022-10-02T05:01:46.715Z,2.47
2022-10-02T05:04:40.160Z,2.83
2022-10-02T05:07:32.521Z,2.50
2022-10-02T05:10:06.484Z,3.10
2022-10-02T05:12:52.508Z,2.57
2022-10-02T05:15:35.009Z,2.43
2022-10-02T05:18:24.525Z,2.37
2022-10-02T05:21:17.043Z,3.10
2022-10-02T05:23:58.247Z,2.10
2022-10-02T05:26:39.338Z,2.20
2022-10-02T05:29:27.588Z,2.70
2022-10-02T05:32:17.287Z,1.93
2022-10-02T05:35:03.835Z,2.20
2022-10-02T05:37:49.304Z,2.83
2022-10-02T05:40:25.233Z,2.40
2022-10-02T05:43:02.387Z,2.50
2022-10-02T05:45:37.483Z,2.20
2022-10-02T05:48:13.609Z,2.60
2022-10-02T05:50:42.689Z,2.53
2022-10-02T05:53:26.513Z,2.63
2022-10-02T05:55:59.943Z,2.50
2022-10-02T05:58:33.898Z,2.43
2022-10-02T06:01:08.882Z,2.13
2022-10-02T06:03:43.557Z,2.40
2022-10-02T06:06:17.647Z,2.40
2022-10-02T06:08:51.923Z,2.40
2022-10-02T06:11:24.722Z,2.73
2022-10-02T06:13:58.777Z,3.03
2022-10-02T06:16:34.243Z,3.23
2022-10-02T06:19:08.987Z,2.77
2022-10-02T06:21:42.414Z,2.60
2022-10-02T06:24:17.677Z,3.77
2022-10-02T06:26:54.153Z,3.83
2022-10-02T06:29:27.421Z,3.40
2022-10-02T06:32:14.902Z,3.50
2022-10-02T06:34:47.140Z,4.13
2022-10-02T06:37:49.265Z,4.13
2022-10-02T06:40:43.605Z,4.10
2022-10-02T06:43:24.990Z,3.63
2022-10-02T06:46:03.509Z,4.23
2022-10-02T06:48:41.005Z,4.03
2022-10-02T06:51:19.526Z,5.33
2022-10-02T06:53:59.470Z,5.50
2022-10-02T06:56:45.423Z,4.47
2022-10-02T06:59:30.099Z,5.80
2022-10-02T07:02:06.558Z,5.43
2022-10-02T07:04:57.693Z,6.20
2022-10-02T07:07:49.351Z,6.17
2022-10-02T07:10:30.486Z,5.30
2022-10-02T07:13:19.311Z,6.20
2022-10-02T07:16:15.440Z,4.80
2022-10-02T07:18:58.758Z,5.10
2022-10-02T07:21:35.648Z,5.17
2022-10-02T07:24:18.549Z,5.53
2022-10-02T07:26:55.706Z,4.30
2022-10-02T07:29:37.760Z,5.00
2022-10-02T07:32:41.697Z,5.27
2022-10-02T07:35:25.747Z,5.03
2022-10-02T07:38:04.218Z,4.47
2022-10-02T07:40:38.624Z,4.63
2022-10-02T07:43:18.176Z,5.30
2022-10-02T07:45:53.984Z,3.63
2022-10-02T07:48:34.906Z,4.20
2022-10-02T07:51:32.365Z,3.90
2022-10-02T07:54:13.623Z,3.87
2022-10-02T07:56:42.753Z,3.57
2022-10-02T07:59:16.103Z,4.30
2022-10-02T08:01:47.629Z,3.67
2022-10-02T08:04:19.691Z,3.77
2022-10-02T08:06:49.103Z,3.80
2022-10-02T08:09:22.784Z,3.77
2022-10-02T08:11:57.916Z,4.00
2022-10-02T08:14:32.170Z,3.90
2022-10-02T08:17:23.215Z,3.97
2022-10-02T08:19:53.494Z,5.10
2022-10-02T08:22:26.645Z,5.73
2022-10-02T08:24:57.849Z,5.07
2022-10-02T08:27:30.465Z,6.63
2022-10-02T08:30:04.352Z,6.37
2022-10-02T08:32:36.870Z,5.43
2022-10-02T08:35:12.669Z,5.17
2022-10-02T08:37:52.398Z,6.20
2022-10-02T08:40:55.847Z,5.27
2022-10-02T08:44:00.033Z,4.90
2022-10-02T08:47:33.058Z,6.37
2022-10-02T08:50:30.108Z,5.67
2022-10-02T08:53:41.860Z,6.53
2022-10-02T08:56:27.693Z,5.03
2022-10-02T08:59:25.932Z,5.10
2022-10-02T09:02:37.466Z,5.67
2022-10-02T09:05:41.638Z,5.03
2022-10-02T09:08:40.987Z,6.47
2022-10-02T09:11:37.205Z,6.37
2022-10-02T09:14:43.656Z,5.47
2022-10-02T09:17:40.232Z,6.00
2022-10-02T09:20:45.715Z,4.73
2022-10-02T09:23:50.516Z,5.77
2022-10-02T09:26:27.123Z,5.43
2022-10-02T09:29:44.827Z,5.17
2022-10-02T09:32:43.444Z,4.97
2022-10-02T09:35:37.723Z,4.47
2022-10-02T09:38:44.838Z,4.50
2022-10-02T09:42:00.841Z,4.93
2022-10-02T09:45:01.922Z,5.73
2022-10-02T09:48:22.935Z,5.10
2022-10-02T09:51:26.544Z,5.40
2022-10-02T09:54:35.866Z,5.20
2022-10-02T09:57:43.543Z,5.20
2022-10-02T10:00:27.013Z,5.53
2022-10-02T10:03:36.563Z,6.18
2022-10-02T10:06:29.544Z,5.80
2022-10-02T10:09:40.555Z,6.73
2022-10-02T10:12:48.073Z,7.10
2022-10-02T10:16:11.810Z,6.83
2022-10-02T10:19:15.365Z,6.07
2022-10-02T10:22:17.358Z,6.50
2022-10-02T10:25:18.787Z,7.60
2022-10-02T10:28:18.222Z,8.63
2022-10-02T10:31:39.793Z,7.38
2022-10-02T10:34:38.787Z,6.47
2022-10-02T10:37:26.823Z,7.55
2022-10-02T10:40:26.495Z,6.38
2022-10-02T10:43:22.397Z,6.30
2022-10-02T10:46:19.652Z,6.40
2022-10-02T10:49:11.679Z,9.43
2022-10-02T10:51:48.333Z,8.63
2022-10-02T10:54:48.319Z,10.15
2022-10-02T10:57:32.795Z,8.20
2022-10-02T11:00:22.688Z,8.45
2022-10-02T11:03:15.404Z,8.25
2022-10-02T11:06:23.196Z,7.05
2022-10-02T11:09:16.407Z,7.13
2022-10-02T11:11:57.629Z,7.20
2022-10-02T11:14:34.618Z,8.65
2022-10-02T11:17:40.024Z,9.98
2022-10-02T11:20:32.833Z,10.32
2022-10-02T11:23:24.847Z,10.35
2022-10-02T11:26:06.414Z,10.45
2022-10-02T11:29:07.919Z,10.88
2022-10-02T11:32:01.275Z,12.93
2022-10-02T11:35:00.558Z,11.95
2022-10-02T11:37:54.611Z,10.10
2022-10-02T11:40:40.175Z,9.50
2022-10-02T11:44:01.845Z,8.07
2022-10-02T11:47:11.227Z,10.13
2022-10-02T11:50:04.122Z,7.30
2022-10-02T11:53:00.392Z,7.70
2022-10-02T11:55:38.802Z,6.97
2022-10-02T11:58:24.000Z,7.85
2022-10-02T12:01:17.800Z,7.57
2022-10-02T12:03:55.818Z,7.70
2022-10-02T12:06:37.615Z,7.75
2022-10-02T12:09:14.573Z,9.80
2022-10-02T12:11:49.675Z,6.47
2022-10-02T12:14:29.602Z,7.22
2022-10-02T12:17:09.666Z,6.65
2022-10-02T12:20:20.502Z,7.28
2022-10-02T12:23:15.462Z,6.53
2022-10-02T12:26:08.069Z,30.60
2022-10-02T12:28:47.366Z,30.25
2022-10-02T12:31:25.891Z,7.72
2022-10-02T12:34:01.291Z,7.30
2022-10-02T12:36:51.377Z,6.82
2022-10-02T12:39:37.214Z,5.53
2022-10-02T12:42:26.665Z,5.78
2022-10-02T12:45:28.510Z,5.30
2022-10-02T12:48:12.223Z,6.15
2022-10-02T12:51:17.166Z,6.22
2022-10-02T12:54:25.647Z,5.32
2022-10-02T12:57:38.887Z,6.57
2022-10-02T13:00:19.154Z,5.97
2022-10-02T13:03:31.129Z,6.15
2022-10-02T13:06:42.508Z,5.28
2022-10-02T13:09:29.791Z,4.93
2022-10-02T13:12:17.908Z,5.35
2022-10-02T13:15:11.711Z,4.50
2022-10-02T13:17:47.885Z,4.50
2022-10-02T13:20:28.171Z,4.38
2022-10-02T13:23:03.461Z,3.65
2022-10-02T13:25:46.672Z,2.55
2022-10-02T13:28:30.909Z,2.22
2022-10-02T13:31:07.131Z,2.58
2022-10-02T13:33:57.011Z,1.65
2022-10-02T13:36:35.247Z,1.63
2022-10-02T13:39:15.781Z,2.60
2022-10-02T13:41:57.173Z,2.15
2022-10-02T13:44:35.731Z,1.65
2022-10-02T13:47:27.907Z,1.88
2022-10-02T13:50:15.301Z,2.15
2022-10-02T13:52:56.304Z,1.92
2022-10-02T13:55:27.303Z,1.70
2022-10-02T13:58:22.786Z,1.77
2022-10-02T14:01:04.545Z,1.67
2022-10-02T14:03:45.022Z,1.98
2022-10-02T14:06:20.152Z,2.20
2022-10-02T14:09:03.980Z,1.73
2022-10-02T14:11:45.830Z,1.70
2022-10-02T14:14:26.878Z,1.88
2022-10-02T14:17:04.171Z,1.92
2022-10-02T14:19:51.646Z,1.67
2022-10-02T14:22:40.058Z,1.50
2022-10-02T14:25:33.207Z,1.63
2022-10-02T14:28:27.034Z,2.00
2022-10-02T14:31:25.032Z,2.35
2022-10-02T14:34:19.704Z,1.67
2022-10-02T14:36:56.120Z,1.35
2022-10-02T14:39:35.741Z,1.58
2022-10-02T14:42:25.024Z,1.60
2022-10-02T14:45:22.675Z,1.73
2022-10-02T14:48:06.175Z,1.30
2022-10-02T14:51:04.980Z,1.80
2022-10-02T14:54:01.468Z,1.35
2022-10-02T14:57:08.172Z,1.45
2022-10-02T15:00:05.296Z,1.75
2022-10-02T15:02:48.540Z,1.45
2022-10-02T15:05:39.698Z,1.95
2022-10-02T15:08:15.274Z,2.05
2022-10-02T15:10:46.110Z,1.70
2022-10-02T15:13:26.901Z,1.92
2022-10-02T15:16:18.990Z,1.75
2022-10-02T15:18:57.457Z,1.80
2022-10-02T15:21:32.644Z,1.17
2022-10-02T15:24:28.872Z,1.50
2022-10-02T15:27:05.881Z,1.88
2022-10-02T15:29:45.636Z,1.75
2022-10-02T15:32:39.710Z,1.70
2022-10-02T15:35:26.053Z,1.80
2022-10-02T15:38:27.265Z,1.70
2022-10-02T15:41:05.764Z,1.30
2022-10-02T15:43:45.372Z,1.73
2022-10-02T15:46:25.386Z,2.22
2022-10-02T15:49:02.056Z,1.15
2022-10-02T15:52:02.926Z,1.90
2022-10-02T15:54:43.033Z,1.58
2022-10-02T15:57:39.292Z,1.83
2022-10-02T16:00:14.457Z,1.73
2022-10-02T16:03:13.341Z,2.13
2022-10-02T16:05:50.218Z,1.50
2022-10-02T16:08:58.430Z,1.77
2022-10-02T16:12:17.670Z,2.40
2022-10-02T16:14:55.755Z,1.60
2022-10-02T16:17:37.600Z,1.67
2022-10-02T16:20:23.196Z,2.07
2022-10-02T16:23:04.381Z,1.60
2022-10-02T16:26:04.668Z,2.47
2022-10-02T16:28:48.149Z,1.50
2022-10-02T16:31:40.986Z,1.70
2022-10-02T16:34:28.090Z,2.13
2022-10-02T16:37:03.065Z,1.73
2022-10-02T16:39:56.409Z,1.80
2022-10-02T16:42:40.111Z,1.60
2022-10-02T16:45:39.343Z,2.07
2022-10-02T16:48:16.039Z,1.60
2022-10-02T16:51:06.922Z,1.60
2022-10-02T16:53:41.423Z,2.33
2022-10-02T16:56:14.597Z,2.03
2022-10-02T16:58:49.138Z,1.80
2022-10-02T17:01:26.426Z,2.37
2022-10-02T17:04:22.062Z,2.20
2022-10-02T17:06:58.127Z,2.40
2022-10-02T17:09:34.437Z,2.70
2022-10-02T17:12:11.040Z,2.17
2022-10-02T17:14:46.703Z,2.30
2022-10-02T17:17:22.984Z,4.07
2022-10-02T17:20:03.485Z,2.57
2022-10-02T17:22:39.343Z,3.33
2022-10-02T17:25:17.232Z,3.20
2022-10-02T17:27:53.191Z,2.20
2022-10-02T17:30:25.134Z,2.50
2022-10-02T17:33:07.848Z,2.57
2022-10-02T17:35:49.681Z,3.03
2022-10-02T17:38:46.973Z,2.33
2022-10-02T17:41:38.673Z,2.37
2022-10-02T17:44:16.731Z,2.40
2022-10-02T17:47:13.067Z,2.20
2022-10-02T17:49:53.524Z,3.37
2022-10-02T17:52:49.511Z,2.93
2022-10-02T17:56:03.794Z,2.70
2022-10-02T17:58:41.207Z,2.73
2022-10-02T18:01:19.511Z,2.53
2022-10-02T18:04:09.023Z,2.50
2022-10-02T18:06:42.425Z,2.63
2022-10-02T18:09:50.313Z,2.77
2022-10-02T18:12:38.317Z,2.77
2022-10-02T18:15:49.619Z,3.00
2022-10-02T18:18:30.730Z,3.03
2022-10-02T18:21:09.505Z,2.87
2022-10-02T18:24:07.183Z,2.63
2022-10-02T18:26:49.707Z,2.47
2022-10-02T18:29:34.747Z,2.77
2022-10-02T18:32:28.242Z,2.73
2022-10-02T18:35:16.625Z,2.97
2022-10-02T18:37:57.505Z,3.37
2022-10-02T18:40:30.332Z,3.00
2022-10-02T18:43:21.215Z,3.13
2022-10-02T18:46:00.261Z,3.97
2022-10-02T18:49:10.145Z,3.33
2022-10-02T18:51:57.901Z,4.00
2022-10-02T18:54:31.451Z,4.80
2022-10-02T18:57:21.031Z,5.37
2022-10-02T19:00:04.603Z,5.90
2022-10-02T19:02:43.907Z,6.33
2022-10-02T19:05:26.697Z,9.03
2022-10-02T19:08:08.667Z,9.90
2022-10-02T19:10:43.798Z,8.83
2022-10-02T19:13:23.092Z,9.83
2022-10-02T19:15:54.316Z,8.97
2022-10-02T19:18:24.060Z,9.57
2022-10-02T19:20:57.043Z,9.97
2022-10-02T19:23:30.173Z,9.03
2022-10-02T19:26:03.033Z,8.80
2022-10-02T19:28:33.009Z,8.67
2022-10-02T19:31:06.538Z,8.33
2022-10-02T19:33:43.392Z,7.37
2022-10-02T19:36:18.608Z,6.47
2022-10-02T19:38:52.888Z,7.23
2022-10-02T19:41:23.438Z,7.50
2022-10-02T19:43:59.495Z,8.07
2022-10-02T19:46:38.822Z,9.77
2022-10-02T19:49:08.855Z,8.27
2022-10-02T19:51:45.363Z,8.20
2022-10-02T19:54:19.898Z,7.37
2022-10-02T19:56:48.829Z,7.63
2022-10-02T19:59:20.207Z,8.67
2022-10-02T20:01:53.713Z,7.57
2022-10-02T20:04:23.967Z,6.83
2022-10-02T20:06:56.568Z,7.30
2022-10-02T20:09:31.308Z,6.40
2022-10-02T20:12:05.361Z,7.40
2022-10-02T20:14:40.780Z,6.90
2022-10-02T20:17:10.927Z,6.93
2022-10-02T20:19:43.744Z,7.50
2022-10-02T20:22:24.195Z,7.67
2022-10-02T20:24:58.365Z,7.43
2022-10-02T20:27:37.240Z,7.80
2022-10-02T20:30:12.217Z,7.77
2022-10-02T20:32:48.308Z,8.10
2022-10-02T20:35:21.537Z,7.13
2022-10-02T20:37:52.614Z,6.83
2022-10-02T20:40:25.443Z,7.00
2022-10-02T20:42:59.836Z,6.33
2022-10-02T20:45:36.540Z,6.70
2022-10-02T20:49:07.135Z,6.50
2022-10-02T20:52:14.458Z,6.30
2022-10-02T20:54:51.597Z,7.17
2022-10-02T20:58:07.709Z,7.43
2022-10-02T21:00:53.324Z,6.60
2022-10-02T21:03:42.752Z,7.90
2022-10-02T21:06:53.526Z,7.37
2022-10-02T21:10:03.890Z,6.63
2022-10-02T21:13:12.438Z,6.87
2022-10-02T21:16:17.433Z,6.87
2022-10-02T21:19:05.919Z,6.30
2022-10-02T21:22:01.776Z,6.70
2022-10-02T21:25:00.983Z,6.30
2022-10-02T21:28:02.457Z,6.40
2022-10-02T21:30:42.803Z,6.90
2022-10-02T21:33:16.007Z,5.87
2022-10-02T21:35:52.087Z,6.87
2022-10-02T21:38:35.571Z,8.00
2022-10-02T21:41:48.632Z,9.60
2022-10-02T21:45:03.636Z,13.03
2022-10-02T21:48:11.469Z,11.80
2022-10-02T21:51:07.290Z,10.53
2022-10-02T21:54:13.019Z,8.87
2022-10-02T21:57:15.528Z,7.43
2022-10-02T22:00:14.219Z,6.43
2022-10-02T22:03:22.123Z,6.33
2022-10-02T22:06:08.431Z,5.60
2022-10-02T22:08:54.990Z,5.77
2022-10-02T22:11:34.396Z,5.70
2022-10-02T22:14:09.675Z,5.93
2022-10-02T22:16:49.024Z,5.57
2022-10-02T22:19:31.978Z,5.57
2022-10-02T22:22:13.750Z,5.70
2022-10-02T22:25:04.273Z,5.10
2022-10-02T22:28:04.119Z,5.03
2022-10-02T22:30:42.280Z,4.40
2022-10-02T22:33:33.124Z,5.33
2022-10-02T22:36:34.392Z,5.10
2022-10-02T22:39:07.422Z,5.23
2022-10-02T22:41:39.430Z,4.60
2022-10-02T22:44:13.266Z,5.07
2022-10-02T22:46:50.287Z,4.93
2022-10-02T22:49:27.895Z,5.23
2022-10-02T22:52:03.500Z,5.60
2022-10-02T22:54:39.519Z,5.00
2022-10-02T22:57:15.543Z,5.43
2022-10-02T22:59:50.021Z,5.13
2022-10-02T23:02:24.045Z,5.83
2022-10-02T23:04:57.657Z,4.77
2022-10-02T23:07:31.599Z,5.60
2022-10-02T23:10:03.449Z,4.57
2022-10-02T23:12:38.791Z,5.53
2022-10-02T23:15:28.251Z,5.33
2022-10-02T23:18:00.456Z,4.23
2022-10-02T23:20:34.153Z,5.20
2022-10-02T23:23:12.921Z,5.07
2022-10-02T23:25:47.556Z,4.90
2022-10-02T23:28:19.690Z,4.40
2022-10-02T23:30:53.781Z,4.20
2022-10-02T23:33:27.253Z,4.67
2022-10-02T23:36:04.049Z,4.40
2022-10-02T23:38:42.379Z,4.33
2022-10-02T23:41:35.054Z,4.70
2022-10-02T23:44:13.921Z,4.30
2022-10-02T23:47:00.465Z,4.47
2022-10-02T23:49:35.026Z,4.10
2022-10-02T23:52:24.875Z,4.03
2022-10-02T23:55:08.411Z,4.90
2022-10-02T23:58:08.340Z,4.80
